Time;durP1;ratioP1;P1;durP2;ratioP2;P2;SDS_P1;SDS_P2;PMS_P1;PMS_P2;Temp;Humidity;BMP_temperature;BMP_pressure;BME280_temperature;BME280_humidity;BME280_pressure;Samples;Min_cycle;Max_cycle;Signal;HPM_P1;HPM_P2
2023/01/17 00:01:05;;;;;;;12.37;2.60;;;;;;;2.63;100.00;98221.19;5093870;28;20040;-90
2023/01/17 00:03:31;;;;;;;11.50;2.37;;;;;;;2.53;100.00;98216.38;5092708;28;20118;-89
2023/01/17 00:11:24;;;;;;;7.30;2.40;;;;;;;2.26;100.00;98240.72;5094385;28;20414;-90
2023/01/17 00:13:50;;;;;;;6.47;2.20;;;;;;;2.13;100.00;98260.34;5078062;28;20040;-89
2023/01/17 00:16:15;;;;;;;7.37;2.00;;;;;;;2.00;100.00;98242.63;5090846;28;20448;-84
2023/01/17 00:26:01;;;;;;;8.67;2.90;;;;;;;1.90;100.00;98250.31;5094591;28;20023;-84
2023/01/17 01:33:43;;;;;;;;;;;;;;;0.93;100.00;98387.38;5092978;28;20276;-84
2023/01/17 01:36:08;;;;;;;3.87;1.83;;;;;;;0.85;100.00;98384.94;5105009;28;19912;-84
2023/01/17 01:38:34;;;;;;;3.87;1.70;;;;;;;0.90;100.00;98385.13;5094011;28;20077;-84
2023/01/17 01:40:59;;;;;;;6.13;2.10;;;;;;;0.89;100.00;98388.00;5082115;28;20437;-84
2023/01/17 01:43:43;;;;;;;7.40;2.13;;;;;;;0.88;100.00;98399.69;5078047;28;20059;-83
2023/01/17 01:46:29;;;;;;;4.87;1.77;;;;;;;0.89;100.00;98390.69;5090025;28;20035;-84
2023/01/17 01:49:13;;;;;;;3.40;1.60;;;;;;;0.90;100.00;98405.63;5095845;28;21030;-84
2023/01/17 01:51:49;;;;;;;5.05;1.65;;;;;;;0.89;100.00;98412.00;5092429;28;20283;-83
2023/01/17 01:54:21;;;;;;;5.50;1.80;;;;;;;0.87;100.00;98422.06;5087844;28;20035;-84
2023/01/17 01:56:49;;;;;;;6.43;2.40;;;;;;;0.83;100.00;98419.81;5094882;28;20282;-83
2023/01/17 01:59:18;;;;;;;5.50;2.80;;;;;;;0.84;100.00;98432.13;5092808;28;20296;-91
2023/01/17 02:01:43;;;;;;;5.27;2.90;;;;;;;0.86;100.00;98428.41;5081707;28;20486;-91
2023/01/17 02:04:09;;;;;;;5.40;2.83;;;;;;;0.79;100.00;98431.91;5091009;28;20380;-91
2023/01/17 02:06:40;;;;;;;5.43;2.60;;;;;;;0.74;100.00;98425.56;5090888;28;20526;-83
2023/01/17 02:09:10;;;;;;;3.43;2.17;;;;;;;0.71;100.00;98436.63;5090352;28;20362;-83
2023/01/17 02:11:37;;;;;;;3.10;2.23;;;;;;;0.72;100.00;98439.13;5095342;28;20300;-83
2023/01/17 02:14:03;;;;;;;2.93;2.33;;;;;;;0.68;100.00;98437.88;5094670;28;20298;-83
2023/01/17 02:16:46;;;;;;;6.97;3.10;;;;;;;0.66;100.00;98439.94;5093370;28;20290;-83
2023/01/17 02:19:30;;;;;;;5.97;3.47;;;;;;;0.67;100.00;98452.22;5091940;28;20039;-83
2023/01/17 02:22:08;;;;;;;5.60;3.65;;;;;;;0.67;100.00;98446.91;5091902;28;20297;-83
2023/01/17 02:25:07;;;;;;;8.50;4.60;;;;;;;0.70;100.00;98446.47;5090535;28;20127;-83
2023/01/17 02:27:48;;;;;;;9.47;4.53;;;;;;;0.73;100.00;98456.72;5089566;28;20308;-83
2023/01/17 02:30:29;;;;;;;9.10;4.70;;;;;;;0.72;100.00;98456.94;5091488;28;20100;-83
2023/01/17 02:33:00;;;;;;;10.30;5.37;;;;;;;0.78;100.00;98464.13;5091691;28;20020;-83
2023/01/17 02:35:57;;;;;;;7.60;5.00;;;;;;;0.80;100.00;98468.22;5096104;28;21112;-84
2023/01/17 02:38:41;;;;;;;6.90;4.90;;;;;;;0.75;100.00;98460.00;5077651;28;20304;-84
2023/01/17 02:41:29;;;;;;;6.87;4.53;;;;;;;0.73;100.00;98451.38;5090302;28;20306;-84
2023/01/17 02:43:55;;;;;;;6.03;3.93;;;;;;;0.66;100.00;98445.25;5080636;28;20274;-84
2023/01/17 02:46:20;;;;;;;6.97;4.10;;;;;;;0.67;100.00;98441.56;5090138;28;20286;-83
2023/01/17 02:48:47;;;;;;;5.67;3.40;;;;;;;0.64;100.00;98441.97;5070602;28;20031;-84
2023/01/17 02:51:31;;;;;;;8.00;3.50;;;;;;;0.66;100.00;98446.06;5083623;28;20073;-90
2023/01/17 02:54:49;;;;;;;10.35;3.85;;;;;;;0.62;100.00;98457.34;5090344;28;20304;-89
2023/01/17 02:57:51;;;;;;;4.50;2.50;;;;;;;0.62;100.00;98457.34;5057516;28;20992;-90
2023/01/17 03:00:42;;;;;;;2.83;1.90;;;;;;;0.55;100.00;98449.38;5086451;28;20308;-91
2023/01/17 03:03:32;;;;;;;2.80;1.80;;;;;;;0.56;100.00;98458.16;5091290;28;20281;-90
2023/01/17 03:06:10;;;;;;;4.20;1.70;;;;;;;0.46;100.00;98456.75;5094331;28;20308;-91
2023/01/17 03:08:40;;;;;;;6.63;1.80;;;;;;;0.45;100.00;98464.94;5105898;27;20772;-90
2023/01/17 03:11:08;;;;;;;3.87;1.57;;;;;;;0.38;100.00;98459.63;5094354;28;20377;-90
2023/01/17 03:13:34;;;;;;;7.03;1.70;;;;;;;0.30;100.00;98460.63;5092677;28;20628;-90
2023/01/17 03:16:00;;;;;;;3.80;2.20;;;;;;;0.31;100.00;98474.75;5082463;28;20379;-91
2023/01/17 03:18:26;;;;;;;4.53;2.27;;;;;;;0.21;100.00;98474.38;5080433;28;20116;-91
2023/01/17 03:20:51;;;;;;;5.20;2.37;;;;;;;0.17;100.00;98479.25;5094574;28;20286;-91
2023/01/17 03:23:17;;;;;;;5.10;2.50;;;;;;;0.10;100.00;98494.41;5095053;28;20115;-90
2023/01/17 03:25:42;;;;;;;3.33;2.30;;;;;;;0.04;100.00;98490.72;5085920;28;20028;-90
2023/01/17 03:28:08;;;;;;;8.57;2.80;;;;;;;-0.01;100.00;98498.50;5080246;28;20034;-84
2023/01/17 03:30:33;;;;;;;4.27;2.40;;;;;;;-0.06;100.00;98499.06;5075288;28;20070;-84
2023/01/17 03:32:58;;;;;;;3.40;2.07;;;;;;;-0.08;100.00;98497.63;5075127;28;21899;-84
2023/01/17 03:35:24;;;;;;;3.77;2.20;;;;;;;-0.14;100.00;98498.44;5088100;28;20075;-84
2023/01/17 03:37:49;;;;;;;5.17;2.10;;;;;;;-0.13;100.00;98508.88;5080264;28;20035;-84
2023/01/17 03:40:15;;;;;;;5.40;2.13;;;;;;;-0.17;100.00;98513.78;5097933;28;20498;-84
2023/01/17 03:42:41;;;;;;;4.17;2.00;;;;;;;-0.18;100.00;98496.19;5087617;28;20055;-84
2023/01/17 03:45:07;;;;;;;7.17;2.40;;;;;;;-0.21;100.00;98506.41;5094502;28;20036;-84
2023/01/17 03:47:34;;;;;;;6.50;2.33;;;;;;;-0.21;100.00;98504.56;5095795;28;20737;-84
2023/01/17 03:50:00;;;;;;;6.37;2.27;;;;;;;-0.17;100.00;98505.78;5077316;28;20030;-84
2023/01/17 03:52:25;;;;;;;5.80;1.80;;;;;;;-0.18;100.00;98504.19;5093628;28;20281;-84
2023/01/17 03:54:50;;;;;;;5.90;1.93;;;;;;;-0.18;100.00;98504.19;5091035;28;20028;-84
2023/01/17 03:57:16;;;;;;;2.73;1.37;;;;;;;-0.14;100.00;98506.44;5087076;28;21814;-84
2023/01/17 03:59:41;;;;;;;4.20;1.67;;;;;;;-0.10;100.00;98513.00;5064515;28;20055;-83
2023/01/17 04:02:07;;;;;;;2.93;1.30;;;;;;;-0.14;100.00;98509.91;5070367;28;20107;-84
2023/01/17 04:04:32;;;;;;;2.80;1.33;;;;;;;-0.11;100.00;98508.69;5088467;28;20073;-84
2023/01/17 04:06:58;;;;;;;5.70;1.90;;;;;;;-0.18;100.00;98498.84;5089409;28;20492;-84
2023/01/17 04:09:23;;;;;;;5.83;2.07;;;;;;;-0.17;100.00;98516.44;5085272;28;20024;-84
2023/01/17 04:11:49;;;;;;;4.67;1.90;;;;;;;-0.14;100.00;98517.06;5090745;28;20062;-84
2023/01/17 04:14:15;;;;;;;5.20;1.70;;;;;;;-0.15;100.00;98515.44;5051276;28;20170;-84
2023/01/17 04:16:41;;;;;;;4.50;1.70;;;;;;;-0.14;100.00;98507.25;5104898;28;20290;-84
2023/01/17 04:19:12;;;;;;;4.17;1.90;;;;;;;-0.18;100.00;98520.16;5076971;28;20287;-84
2023/01/17 04:21:37;;;;;;;5.80;1.80;;;;;;;-0.21;100.00;98520.53;5087246;28;20116;-84
2023/01/17 04:24:03;;;;;;;5.50;2.00;;;;;;;-0.23;100.00;98522.56;5096321;28;20364;-84
2023/01/17 04:26:28;;;;;;;7.27;2.30;;;;;;;-0.25;100.00;98521.94;5094981;28;20509;-84
2023/01/17 04:28:54;;;;;;;6.60;2.40;;;;;;;-0.26;100.00;98512.34;5073078;28;20032;-84
2023/01/17 04:31:19;;;;;;;8.37;2.60;;;;;;;-0.27;100.00;98515.16;5077730;28;20035;-83
2023/01/17 04:33:44;;;;;;;9.50;3.13;;;;;;;-0.33;100.00;98511.47;5092995;28;20060;-84
2023/01/17 04:36:10;;;;;;;6.30;2.27;;;;;;;-0.32;100.00;98507.78;5091598;28;20040;-84
2023/01/17 04:38:35;;;;;;;8.40;2.30;;;;;;;-0.32;100.00;98496.34;5087269;28;21725;-91
2023/01/17 04:41:01;;;;;;;10.87;3.33;;;;;;;-0.32;100.00;98505.13;5078716;28;20036;-91
2023/01/17 04:43:26;;;;;;;5.80;2.50;;;;;;;-0.35;100.00;98509.00;5077847;28;20475;-91
2023/01/17 04:45:55;;;;;;;5.93;2.60;;;;;;;-0.39;100.00;98506.97;5101722;28;20059;-92
2023/01/17 04:48:21;;;;;;;6.13;2.00;;;;;;;-0.36;100.00;98502.03;5076561;28;20025;-91
2023/01/17 04:50:46;;;;;;;4.53;1.90;;;;;;;-0.35;100.00;98511.66;5084695;28;20705;-91
2023/01/17 04:53:12;;;;;;;7.73;2.10;;;;;;;-0.34;100.00;98504.50;5083136;28;20042;-91
2023/01/17 04:55:37;;;;;;;5.67;2.27;;;;;;;-0.35;100.00;98500.22;5086152;28;20395;-91
2023/01/17 04:58:03;;;;;;;8.43;2.20;;;;;;;-0.39;100.00;98509.63;5079305;28;20067;-91
2023/01/17 05:00:29;;;;;;;7.40;2.47;;;;;;;-0.35;100.00;98517.00;5094660;28;20034;-90
2023/01/17 05:02:54;;;;;;;3.53;2.10;;;;;;;-0.33;100.00;98518.66;5085724;28;20039;-91
2023/01/17 05:05:20;;;;;;;3.60;2.20;;;;;;;-0.36;100.00;98522.53;5096621;28;20089;-90
2023/01/17 05:07:55;;;;;;;8.00;2.80;;;;;;;-0.38;100.00;98522.72;5084588;28;20029;-85
2023/01/17 05:10:21;;;;;;;7.90;3.10;;;;;;;-0.36;100.00;98527.84;5114463;27;20020;-83
2023/01/17 05:12:57;;;;;;;8.40;3.37;;;;;;;-0.43;100.00;98516.34;5092985;28;20339;-84
2023/01/17 05:15:23;;;;;;;8.47;3.70;;;;;;;-0.43;100.00;98516.34;5095397;28;20030;-91
2023/01/17 05:17:50;;;;;;;9.77;4.77;;;;;;;-0.46;100.00;98522.88;5076836;28;20376;-91
2023/01/17 05:20:16;;;;;;;11.37;4.63;;;;;;;-0.48;100.00;98526.75;5078694;28;20302;-91
2023/01/17 05:22:41;;;;;;;12.87;5.43;;;;;;;-0.45;100.00;98521.03;5077996;28;21199;-91
2023/01/17 05:25:07;;;;;;;12.53;6.23;;;;;;;-0.45;100.00;98526.34;5095691;28;20036;-91
2023/01/17 05:27:32;;;;;;;9.30;5.60;;;;;;;-0.44;100.00;98528.00;5062186;28;20016;-90
2023/01/17 05:29:58;;;;;;;10.27;6.10;;;;;;;-0.47;100.00;98529.22;5074760;28;20115;-90
2023/01/17 05:32:23;;;;;;;11.93;6.97;;;;;;;-0.49;100.00;98527.78;5094228;28;20483;-90
2023/01/17 05:34:49;;;;;;;14.67;7.80;;;;;;;-0.49;100.00;98525.94;5093767;28;20016;-84
2023/01/17 05:37:15;;;;;;;14.17;7.40;;;;;;;-0.49;100.00;98522.44;5100998;28;20382;-84
2023/01/17 05:39:40;;;;;;;13.30;7.13;;;;;;;-0.47;100.00;98525.75;5095393;28;20286;-84
2023/01/17 05:42:06;;;;;;;12.87;7.40;;;;;;;-0.52;100.00;98526.31;5100989;28;20047;-84
2023/01/17 05:44:31;;;;;;;12.53;7.77;;;;;;;-0.53;100.00;98527.34;5096224;28;20016;-83
2023/01/17 05:46:56;;;;;;;14.97;8.10;;;;;;;-0.54;100.00;98529.19;5095292;28;20031;-83
2023/01/17 05:49:22;;;;;;;14.67;8.37;;;;;;;-0.54;100.00;98531.84;5096013;28;20031;-83
2023/01/17 05:51:47;;;;;;;14.83;8.47;;;;;;;-0.59;100.00;98536.94;5094652;28;20028;-83
2023/01/17 05:54:13;;;;;;;14.80;9.20;;;;;;;-0.55;100.00;98545.34;5078863;28;20032;-83
2023/01/17 05:56:38;;;;;;;16.93;9.17;;;;;;;-0.55;100.00;98543.50;5069700;28;20395;-83
2023/01/17 05:59:03;;;;;;;17.40;9.37;;;;;;;-0.59;100.00;98539.59;5062006;28;20028;-90
2023/01/17 06:01:29;;;;;;;16.33;9.10;;;;;;;-0.63;100.00;98548.16;5090285;28;20020;-91
2023/01/17 06:03:54;;;;;;;18.00;9.97;;;;;;;-0.62;100.00;98553.28;5095079;28;20020;-91
2023/01/17 06:06:20;;;;;;;16.77;10.00;;;;;;;-0.65;100.00;98553.69;5062739;28;20023;-90
2023/01/17 06:08:45;;;;;;;16.30;9.87;;;;;;;-0.66;100.00;98543.25;5080269;28;20027;-91
2023/01/17 06:11:11;;;;;;;17.63;9.93;;;;;;;-0.64;100.00;98552.69;5099619;28;20028;-90
2023/01/17 06:13:36;;;;;;;17.13;10.03;;;;;;;-0.65;100.00;98556.34;5097279;28;20115;-91
2023/01/17 06:16:02;;;;;;;16.20;10.17;;;;;;;-0.69;100.00;98549.78;5092330;28;20066;-91
2023/01/17 06:18:29;;;;;;;17.33;11.97;;;;;;;-0.72;100.00;98555.47;5099164;28;20387;-90
2023/01/17 06:20:55;;;;;;;18.20;11.57;;;;;;;-0.73;100.00;98559.16;5063752;28;20336;-83
2023/01/17 06:23:22;;;;;;;19.57;12.20;;;;;;;-0.72;100.00;98560.78;5094435;28;20780;-83
2023/01/17 06:25:48;;;;;;;19.33;12.30;;;;;;;-0.72;100.00;98550.97;5094208;28;20475;-83
2023/01/17 06:28:16;;;;;;;19.97;12.93;;;;;;;-0.74;100.00;98558.31;5094240;28;20362;-83
2023/01/17 06:30:42;;;;;;;22.43;12.90;;;;;;;-0.72;100.00;98555.47;5092112;28;20138;-83
2023/01/17 06:33:08;;;;;;;21.87;13.20;;;;;;;-0.74;100.00;98560.16;5085156;28;20290;-83
2023/01/17 06:35:36;;;;;;;19.33;13.60;;;;;;;-0.79;100.00;98557.28;5093004;28;20285;-83
2023/01/17 06:38:01;;;;;;;21.43;14.77;;;;;;;-0.81;100.00;98567.28;5092034;28;20314;-83
2023/01/17 06:40:27;;;;;;;19.77;14.90;;;;;;;-0.81;100.00;98580.59;5088195;28;21167;-83
2023/01/17 06:42:53;;;;;;;21.67;15.17;;;;;;;-0.82;100.00;98568.28;5090473;28;20101;-83
2023/01/17 06:45:18;;;;;;;23.17;16.33;;;;;;;-0.90;100.00;98569.25;5077072;28;20653;-83
2023/01/17 06:47:44;;;;;;;22.83;18.20;;;;;;;-0.89;100.00;98577.03;5092535;28;20024;-83
2023/01/17 06:50:15;;;;;;;25.87;19.20;;;;;;;-0.88;100.00;98568.06;5092812;28;20372;-83
2023/01/17 06:52:41;;;;;;;23.83;17.50;;;;;;;-0.88;100.00;98570.72;5091203;28;20044;-83
2023/01/17 06:55:07;;;;;;;25.60;17.57;;;;;;;-0.89;100.00;98569.06;5093258;28;20326;-83
2023/01/17 06:57:33;;;;;;;24.57;17.33;;;;;;;-0.92;100.00;98572.13;5093616;28;20296;-83
2023/01/17 06:59:58;;;;;;;22.20;16.73;;;;;;;-0.93;100.00;98567.81;5095417;28;20290;-83
2023/01/17 07:02:24;;;;;;;24.80;17.53;;;;;;;-0.91;100.00;98570.25;5095182;28;20532;-84
2023/01/17 07:04:49;;;;;;;24.70;18.77;;;;;;;-0.98;100.00;98577.38;5092873;28;20031;-83
2023/01/17 07:07:15;;;;;;;23.80;18.23;;;;;;;-0.95;100.00;98583.13;5088739;28;20581;-83
2023/01/17 07:09:40;;;;;;;23.57;17.33;;;;;;;-1.04;100.00;98576.31;5087691;28;20124;-90
2023/01/17 07:12:06;;;;;;;24.40;17.33;;;;;;;-1.02;100.00;98588.41;5089642;28;20025;-91
2023/01/17 07:14:31;;;;;;;23.00;17.37;;;;;;;-1.04;100.00;98574.47;5088406;28;20085;-91
2023/01/17 07:16:57;;;;;;;22.73;17.30;;;;;;;-1.08;100.00;98577.72;5090113;28;20119;-91
2023/01/17 07:19:23;;;;;;;21.17;17.07;;;;;;;-1.10;100.00;98575.25;5091046;28;20056;-90
2023/01/17 07:21:52;;;;;;;23.77;17.33;;;;;;;-1.15;100.00;98576.84;5093735;28;20032;-91
2023/01/17 07:24:19;;;;;;;24.03;17.57;;;;;;;-1.17;100.00;98586.84;5098617;28;20297;-91
2023/01/17 07:26:49;;;;;;;22.53;17.50;;;;;;;-1.19;100.00;98590.50;5061413;28;20317;-90
2023/01/17 07:29:14;;;;;;;22.67;17.53;;;;;;;-1.19;100.00;98593.16;5091941;28;20332;-89
2023/01/17 07:31:40;;;;;;;21.80;17.23;;;;;;;-1.20;100.00;98602.16;5062309;28;20414;-91
2023/01/17 07:34:05;;;;;;;25.77;17.47;;;;;;;-1.25;100.00;98588.63;5090106;28;20024;-83
2023/01/17 07:36:31;;;;;;;23.40;17.80;;;;;;;-1.26;100.00;98594.94;5098496;28;20028;-83
2023/01/17 07:38:56;;;;;;;24.23;17.80;;;;;;;-1.24;100.00;98597.41;5088669;28;20020;-83
2023/01/17 07:41:21;;;;;;;24.47;17.17;;;;;;;-1.27;100.00;98597.78;5090650;28;20093;-83
2023/01/17 07:43:47;;;;;;;24.23;17.40;;;;;;;-1.26;100.00;98602.09;5094092;28;20128;-83
2023/01/17 07:46:14;;;;;;;23.10;16.67;;;;;;;-1.27;100.00;98600.44;5093092;28;20035;-83
2023/01/17 07:48:40;;;;;;;22.83;17.67;;;;;;;-1.29;100.00;98602.47;5084505;28;20020;-83
2023/01/17 07:51:07;;;;;;;24.27;17.37;;;;;;;-1.27;100.00;98606.56;5090082;28;20803;-83
2023/01/17 07:53:33;;;;;;;23.97;17.50;;;;;;;-1.33;100.00;98602.03;5090566;28;20289;-83
2023/01/17 07:56:01;;;;;;;22.87;17.23;;;;;;;-1.32;100.00;98614.31;5084320;28;20282;-83
2023/01/17 07:58:26;;;;;;;21.37;17.00;;;;;;;-1.29;100.00;98607.78;5093262;28;20344;-91
2023/01/17 08:00:52;;;;;;;22.93;18.73;;;;;;;-1.31;100.00;98602.66;5056239;28;20805;-91
2023/01/17 08:03:17;;;;;;;26.53;18.73;;;;;;;-1.28;100.00;98612.94;5071787;28;20024;-83
2023/01/17 08:05:52;;;;;;;23.53;17.93;;;;;;;-1.26;100.00;98612.72;5079067;28;20036;-83
2023/01/17 08:08:17;;;;;;;25.30;17.67;;;;;;;-1.26;100.00;98605.56;5092401;28;20028;-83
2023/01/17 08:10:43;;;;;;;23.83;17.63;;;;;;;-1.20;100.00;98606.63;5091665;28;20331;-83
2023/01/17 08:13:08;;;;;;;20.67;16.60;;;;;;;-1.17;100.00;98610.75;5090956;28;20028;-83
2023/01/17 08:15:33;;;;;;;24.13;16.90;;;;;;;-1.14;100.00;98610.34;5091571;28;20032;-83
2023/01/17 08:17:59;;;;;;;22.37;15.87;;;;;;;-1.06;100.00;98612.88;5089344;28;20031;-83
2023/01/17 08:20:25;;;;;;;21.13;15.97;;;;;;;-1.02;100.00;98614.97;5084937;28;20566;-83
2023/01/17 08:22:55;;;;;;;22.97;16.43;;;;;;;-0.93;100.00;98607.69;5082277;28;20463;-83
2023/01/17 08:25:22;;;;;;;22.00;16.23;;;;;;;-0.87;100.00;98609.59;5100293;28;20024;-89
2023/01/17 08:27:47;;;;;;;24.83;15.07;;;;;;;-0.81;100.00;98601.84;5095897;28;20713;-92
2023/01/17 08:30:13;;;;;;;20.20;14.57;;;;;;;-0.78;100.00;98609.44;5088169;28;20297;-91
2023/01/17 08:32:39;;;;;;;21.23;15.30;;;;;;;-0.75;100.00;98614.38;5065221;28;20012;-91
2023/01/17 08:35:06;;;;;;;19.03;15.10;;;;;;;-0.75;100.00;98615.19;5102849;28;20036;-91
2023/01/17 08:37:31;;;;;;;21.37;14.73;;;;;;;-0.65;100.00;98617.50;5098833;28;21178;-91
2023/01/17 08:39:57;;;;;;;20.57;14.10;;;;;;;-0.62;100.00;98613.66;5093289;28;20281;-91
2023/01/17 08:42:22;;;;;;;19.37;13.67;;;;;;;-0.56;100.00;98610.19;5104314;28;20096;-91
2023/01/17 08:44:47;;;;;;;22.13;14.53;;;;;;;-0.50;100.00;98614.75;5100290;28;20105;-92
2023/01/17 08:47:13;;;;;;;20.07;14.13;;;;;;;-0.37;100.00;98620.16;5078093;28;20506;-91
2023/01/17 08:49:38;;;;;;;21.90;14.53;;;;;;;-0.26;100.00;98621.44;5091921;28;20441;-91
2023/01/17 08:52:04;;;;;;;19.57;13.60;;;;;;;-0.21;100.00;98624.31;5101701;28;20023;-92
2023/01/17 08:54:29;;;;;;;20.30;13.40;;;;;;;-0.26;100.00;98616.13;5097521;28;20031;-91
2023/01/17 08:56:55;;;;;;;18.77;13.37;;;;;;;-0.15;100.00;98622.75;5061539;28;20033;-91
2023/01/17 08:59:21;;;;;;;22.93;14.00;;;;;;;-0.12;100.00;98619.66;5097480;28;20114;-84
2023/01/17 09:01:46;;;;;;;19.07;13.43;;;;;;;-0.04;100.00;98621.31;5094688;28;20020;-83
2023/01/17 09:04:12;;;;;;;17.93;12.27;;;;;;;0.03;100.00;98627.53;5097972;28;20028;-83
2023/01/17 09:06:40;;;;;;;19.67;14.20;;;;;;;0.05;100.00;98627.31;5094694;28;20028;-83
2023/01/17 09:09:06;;;;;;;20.80;13.50;;;;;;;-0.01;100.00;98631.59;5099536;28;20030;-91
2023/01/17 09:11:33;;;;;;;20.57;13.20;;;;;;;-0.13;100.00;98633.19;5096149;28;20317;-91
2023/01/17 09:13:58;;;;;;;18.83;13.47;;;;;;;-0.13;100.00;98636.66;5079520;28;20293;-92
2023/01/17 09:16:24;;;;;;;16.67;13.27;;;;;;;-0.06;100.00;98639.34;5095962;28;20285;-91
2023/01/17 09:18:59;;;;;;;19.43;13.80;;;;;;;-0.02;100.00;98644.06;5097694;28;20032;-91
2023/01/17 09:21:25;;;;;;;;;;;;;;;0.14;100.00;98644.78;5099791;28;20027;-92
2023/01/17 09:23:51;;;;;;;20.03;14.33;;;;;;;0.02;100.00;98649.03;5078236;28;19919;-91
2023/01/17 09:26:25;;;;;;;18.00;13.43;;;;;;;0.25;100.00;98656.72;5100848;28;20099;-92
2023/01/17 09:28:51;;;;;;;20.40;13.57;;;;;;;0.53;100.00;98645.94;5100670;28;20281;-92
2023/01/17 09:31:19;;;;;;;17.67;12.80;;;;;;;0.59;100.00;98654.97;5093757;28;20031;-92
2023/01/17 09:33:45;;;;;;;16.60;12.20;;;;;;;0.82;100.00;98649.28;5075341;28;20119;-91
2023/01/17 09:36:11;;;;;;;18.50;13.17;;;;;;;1.00;100.00;98659.34;5077939;28;20115;-92
2023/01/17 09:38:38;;;;;;;18.53;13.47;;;;;;;0.99;100.00;98657.72;5099373;28;20487;-92
2023/01/17 09:41:21;;;;;;;15.97;11.43;;;;;;;1.12;100.00;98657.72;5102014;28;20036;-91
2023/01/17 09:44:00;;;;;;;15.87;10.83;;;;;;;1.07;100.00;98664.69;5099303;28;20032;-92
2023/01/17 09:46:30;;;;;;;16.73;11.37;;;;;;;1.07;100.00;98660.19;5097816;28;20035;-84
2023/01/17 09:49:03;;;;;;;17.80;11.37;;;;;;;1.18;100.00;98661.41;5089874;28;21861;-84
2023/01/17 09:51:29;;;;;;;17.98;11.90;;;;;;;1.25;100.00;98666.75;5088677;28;20020;-84
2023/01/17 09:53:55;;;;;;;20.20;12.17;;;;;;;1.28;100.00;98658.34;5092580;28;20031;-84
2023/01/17 09:56:28;;;;;;;19.10;11.83;;;;;;;1.78;100.00;98664.06;5086175;28;20023;-84
2023/01/17 09:59:26;;;;;;;15.73;10.27;;;;;;;2.06;100.00;98665.63;5089624;28;20490;-84
2023/01/17 10:02:01;;;;;;;17.37;10.57;;;;;;;2.08;100.00;98668.94;5091277;28;20293;-85
2023/01/17 10:04:29;;;;;;;;;;;;;;;2.50;100.00;98676.56;5097315;28;20549;-84
2023/01/17 10:07:00;;;;;;;14.17;9.50;;;;;;;2.16;100.00;98683.88;5092315;28;19926;-84
2023/01/17 10:09:54;;;;;;;13.90;9.67;;;;;;;2.26;100.00;98673.59;5092151;28;20097;-84
2023/01/17 10:12:19;;;;;;;15.13;9.70;;;;;;;2.24;100.00;98680.16;5098426;28;20038;-84
2023/01/17 10:15:11;;;;;;;16.27;10.47;;;;;;;2.33;100.00;98673.56;5094691;28;20479;-84
2023/01/17 10:17:47;;;;;;;14.57;9.30;;;;;;;2.03;100.00;98676.75;5069110;28;20043;-84
2023/01/17 10:20:39;;;;;;;14.00;9.53;;;;;;;2.29;100.00;98678.50;5089242;28;20388;-84
2023/01/17 10:23:35;;;;;;;12.93;9.30;;;;;;;2.38;100.00;98679.09;5089716;28;20237;-84
2023/01/17 10:26:04;;;;;;;14.43;9.47;;;;;;;2.15;100.00;98680.41;5088356;28;20024;-84
2023/01/17 10:28:32;;;;;;;13.47;10.00;;;;;;;2.17;100.00;98666.84;5090663;28;20051;-84
2023/01/17 10:31:04;;;;;;;14.03;8.90;;;;;;;2.77;100.00;98668.41;5094724;28;20094;-84
2023/01/17 10:33:46;;;;;;;15.47;9.10;;;;;;;2.82;100.00;98671.28;5093233;28;20065;-84
2023/01/17 10:36:19;;;;;;;14.17;8.23;;;;;;;2.84;100.00;98678.06;5093660;28;20036;-84
2023/01/17 10:38:48;;;;;;;14.10;7.97;;;;;;;2.83;100.00;98684.44;5091014;28;20590;-84
2023/01/17 10:41:25;;;;;;;14.80;8.93;;;;;;;3.08;100.00;98670.28;5095818;28;20043;-84
2023/01/17 10:44:19;;;;;;;11.67;8.00;;;;;;;3.35;100.00;98670.91;5098840;28;20536;-84
2023/01/17 10:47:00;;;;;;;13.97;8.73;;;;;;;4.18;100.00;98673.41;5096352;28;20028;-84
2023/01/17 10:49:27;;;;;;;10.40;7.57;;;;;;;4.36;96.80;98680.63;5091623;28;20042;-93
2023/01/17 10:52:18;;;;;;;12.70;7.30;;;;;;;4.48;94.10;98683.38;5092545;28;20475;-92
2023/01/17 10:55:04;;;;;;;14.13;8.37;;;;;;;4.27;93.87;98676.59;5090218;28;20978;-92
2023/01/17 10:57:41;;;;;;;10.37;7.13;;;;;;;5.07;93.47;98675.56;5090950;28;20107;-92
2023/01/17 11:00:44;;;;;;;12.13;6.73;;;;;;;5.57;91.85;98671.69;5092957;28;20058;-85
2023/01/17 11:03:12;;;;;;;12.13;7.30;;;;;;;5.69;89.39;98683.25;5057175;28;21928;-85
2023/01/17 11:05:39;;;;;;;11.23;7.40;;;;;;;5.98;87.99;98669.16;5090680;28;20014;-85
2023/01/17 11:08:10;;;;;;;10.17;6.80;;;;;;;5.65;84.14;98670.53;5092678;28;20503;-85
2023/01/17 11:10:43;;;;;;;9.47;6.13;;;;;;;5.82;82.63;98670.63;5090887;28;20368;-85
2023/01/17 11:13:35;;;;;;;10.70;6.27;;;;;;;5.89;82.35;98672.16;5089262;28;20027;-84
2023/01/17 11:16:08;;;;;;;10.87;5.90;;;;;;;5.51;82.15;98665.38;5079150;28;20597;-84
2023/01/17 11:18:38;;;;;;;11.23;6.33;;;;;;;5.77;84.84;98668.66;5084098;28;20016;-84
2023/01/17 11:21:10;;;;;;;10.23;6.03;;;;;;;5.77;82.49;98665.97;5091645;28;20031;-84
2023/01/17 11:23:35;;;;;;;9.60;6.20;;;;;;;5.52;82.31;98656.28;5091457;28;20115;-85
2023/01/17 11:26:06;;;;;;;11.10;6.10;;;;;;;5.38;80.75;98662.91;5096168;28;20128;-84
2023/01/17 11:28:34;;;;;;;10.97;6.30;;;;;;;5.21;81.55;98660.91;5091874;28;20020;-84
2023/01/17 11:31:06;;;;;;;9.93;5.70;;;;;;;4.95;80.83;98664.81;5093186;28;20027;-84
2023/01/17 11:33:44;;;;;;;10.93;5.83;;;;;;;4.67;79.26;98668.09;5096868;28;20495;-84
2023/01/17 11:36:18;;;;;;;7.33;5.60;;;;;;;4.88;80.66;98670.25;5092359;28;20098;-84
2023/01/17 11:38:55;;;;;;;11.00;6.03;;;;;;;4.80;83.20;98664.38;5090354;28;20028;-84
2023/01/17 11:41:22;;;;;;;10.03;6.10;;;;;;;4.48;82.15;98660.06;5089626;28;20389;-84
2023/01/17 11:43:53;;;;;;;10.57;5.97;;;;;;;4.41;82.99;98659.31;5086535;28;20074;-84
2023/01/17 11:46:19;;;;;;;9.93;5.93;;;;;;;4.27;82.92;98668.56;5088080;28;20051;-83
2023/01/17 11:48:58;;;;;;;10.47;6.27;;;;;;;4.52;83.07;98658.56;5072596;28;20071;-83
2023/01/17 11:51:32;;;;;;;9.17;6.47;;;;;;;4.54;82.12;98664.53;5090413;28;20050;-84
2023/01/17 11:54:38;;;;;;;9.40;5.70;;;;;;;4.76;83.18;98663.19;5091208;28;20471;-83
2023/01/17 11:57:05;;;;;;;8.93;5.27;;;;;;;4.76;82.57;98658.69;5071563;28;20388;-83
2023/01/17 11:59:39;;;;;;;9.30;5.50;;;;;;;4.55;79.75;98655.41;5090804;28;20948;-84
2023/01/17 12:02:41;;;;;;;10.45;5.40;;;;;;;4.56;81.11;98654.38;5096612;28;20028;-84
2023/01/17 12:05:30;;;;;;;11.23;6.07;;;;;;;4.55;82.18;98646.56;5089470;28;20051;-84
2023/01/17 12:08:24;;;;;;;10.37;6.00;;;;;;;4.50;84.03;98647.25;5094300;28;20057;-84
2023/01/17 12:11:08;;;;;;;9.70;5.07;;;;;;;4.84;80.14;98652.16;5063202;28;20040;-83
2023/01/17 12:14:01;;;;;;;9.87;5.30;;;;;;;4.72;77.88;98652.94;5094204;28;20035;-83
2023/01/17 12:16:35;;;;;;;9.73;5.70;;;;;;;4.84;78.10;98646.78;5099407;28;20038;-83
2023/01/17 12:19:31;;;;;;;8.55;5.00;;;;;;;5.12;78.29;98646.16;5098158;28;20028;-84
2023/01/17 12:22:21;;;;;;;10.50;4.80;;;;;;;5.24;77.24;98659.63;5092762;28;20037;-83
2023/01/17 12:25:13;;;;;;;8.50;4.10;;;;;;;5.66;73.06;98658.75;5093863;28;20036;-84
2023/01/17 12:28:10;;;;;;;6.90;3.90;;;;;;;5.99;73.96;98654.66;5094054;28;20035;-84
2023/01/17 12:30:54;;;;;;;6.30;4.13;;;;;;;6.11;68.61;98650.06;5088304;28;20411;-92
2023/01/17 12:33:31;;;;;;;7.18;4.10;;;;;;;6.29;67.51;98648.28;5101782;28;20028;-92
2023/01/17 12:36:01;;;;;;;6.70;3.30;;;;;;;6.51;68.32;98645.75;5093274;28;20035;-92
2023/01/17 12:38:38;;;;;;;4.30;3.23;;;;;;;6.50;66.08;98644.13;5097473;28;20057;-91
2023/01/17 12:41:17;;;;;;;5.07;3.73;;;;;;;6.51;68.88;98633.13;5093876;28;20057;-92
2023/01/17 12:43:43;;;;;;;6.60;3.30;;;;;;;6.12;65.38;98640.97;5077970;28;20028;-92
2023/01/17 12:46:25;;;;;;;6.50;3.50;;;;;;;6.13;67.11;98644.47;5100142;28;20349;-92
2023/01/17 12:48:59;;;;;;;4.13;3.10;;;;;;;6.17;66.51;98643.75;5100581;28;20035;-92
2023/01/17 12:51:28;;;;;;;5.90;3.03;;;;;;;6.15;65.09;98642.38;5095119;28;20024;-91
2023/01/17 12:54:11;;;;;;;6.13;3.70;;;;;;;6.08;66.73;98637.91;5115504;27;20039;-91
2023/01/17 12:56:47;;;;;;;8.37;4.30;;;;;;;5.91;66.28;98636.97;5075747;28;20019;-92
2023/01/17 12:59:20;;;;;;;4.80;2.80;;;;;;;6.27;64.87;98645.00;5100828;28;20034;-84